createdAt,value
2018-12-29T00:00:40.495Z,17.77
2018-12-29T00:02:46.235Z,17.57
2018-12-29T00:04:52.591Z,17.83
2018-12-29T00:07:17.481Z,20.60
2018-12-29T00:09:23.136Z,18.33
2018-12-29T00:11:41.878Z,19.70
2018-12-29T00:13:47.511Z,17.30
2018-12-29T00:15:53.885Z,20.73
2018-12-29T00:20:36.663Z,18.00
2018-12-29T00:22:42.734Z,19.47
2018-12-29T00:24:48.477Z,17.87
2018-12-29T00:26:54.277Z,20.83
2018-12-29T00:29:00.059Z,17.23
2018-12-29T00:31:05.790Z,21.70
2018-12-29T00:33:11.506Z,20.47
2018-12-29T00:35:17.421Z,19.20
2018-12-29T00:37:42.378Z,20.63
2018-12-29T00:39:48.618Z,19.80
2018-12-29T00:42:13.323Z,20.50
2018-12-29T00:44:30.304Z,19.27
2018-12-29T00:46:36.249Z,19.93
2018-12-29T00:48:45.070Z,20.67
2018-12-29T00:51:10.222Z,18.80
2018-12-29T00:53:15.865Z,19.63
2018-12-29T00:55:21.909Z,22.00
2018-12-29T00:57:29.589Z,20.30
2018-12-29T00:59:35.762Z,20.87
2018-12-29T01:01:41.508Z,21.47
2018-12-29T01:03:48.339Z,18.90
2018-12-29T01:05:54.115Z,20.13
2018-12-29T01:08:00.323Z,19.77
2018-12-29T01:10:07.027Z,18.93
2018-12-29T01:12:14.866Z,19.50
2018-12-29T01:14:20.687Z,18.30
2018-12-29T01:16:26.802Z,20.60
2018-12-29T01:18:34.600Z,20.40
2018-12-29T01:20:40.275Z,19.17
2018-12-29T01:22:45.926Z,20.30
2018-12-29T01:25:10.701Z,20.83
2018-12-29T01:27:16.452Z,20.47
2018-12-29T01:29:42.162Z,19.83
2018-12-29T01:31:47.872Z,20.43
2018-12-29T01:34:13.042Z,18.77
2018-12-29T01:36:19.100Z,19.70
2018-12-29T01:38:25.078Z,19.30
2018-12-29T01:40:50.416Z,19.40
2018-12-29T01:42:56.209Z,20.30
2018-12-29T01:45:02.703Z,20.90
2018-12-29T01:47:08.908Z,22.80
2018-12-29T01:49:14.620Z,20.97
2018-12-29T01:51:20.322Z,22.60
2018-12-29T01:53:26.054Z,20.20
2018-12-29T01:55:31.754Z,20.10
2018-12-29T01:57:37.402Z,20.40
2018-12-29T01:59:43.205Z,19.40
2018-12-29T02:01:48.992Z,21.57
2018-12-29T02:03:54.761Z,19.60
2018-12-29T02:06:00.498Z,21.67
2018-12-29T02:08:06.223Z,22.40
2018-12-29T02:10:12.298Z,20.90
2018-12-29T02:12:17.973Z,20.17
2018-12-29T02:14:24.030Z,21.87
2018-12-29T02:16:29.717Z,18.70
2018-12-29T02:18:54.469Z,18.63
2018-12-29T02:21:19.450Z,19.90
2018-12-29T02:23:25.144Z,20.23
2018-12-29T02:25:30.871Z,19.23
2018-12-29T02:27:36.588Z,19.37
2018-12-29T02:29:42.418Z,19.80
2018-12-29T02:31:48.411Z,19.43
2018-12-29T02:36:19.309Z,18.10
2018-12-29T02:38:25.021Z,20.83
2018-12-29T02:40:30.969Z,19.03
2018-12-29T02:42:37.050Z,19.77
2018-12-29T02:44:42.681Z,19.07
2018-12-29T02:46:52.284Z,20.40
2018-12-29T02:49:17.282Z,18.93
2018-12-29T02:51:23.264Z,19.77
2018-12-29T02:53:47.969Z,21.20
2018-12-29T02:58:21.711Z,18.10
2018-12-29T03:00:46.418Z,17.97
2018-12-29T03:02:52.553Z,17.87
2018-12-29T03:04:58.474Z,18.47
2018-12-29T03:07:04.603Z,20.90
2018-12-29T03:09:10.306Z,17.60
2018-12-29T03:11:16.544Z,19.40
2018-12-29T03:13:22.319Z,19.37
2018-12-29T03:15:28.349Z,19.67
2018-12-29T03:17:34.259Z,20.40
2018-12-29T03:19:40.020Z,18.50
2018-12-29T03:21:47.503Z,19.70
2018-12-29T03:23:53.325Z,18.83
2018-12-29T03:25:59.247Z,18.70
2018-12-29T03:28:05.128Z,18.93
2018-12-29T03:30:10.908Z,19.87
2018-12-29T03:32:16.625Z,20.33
2018-12-29T03:34:22.753Z,19.37
2018-12-29T03:36:47.858Z,19.40
2018-12-29T03:38:53.600Z,17.20
2018-12-29T03:41:18.404Z,19.43
2018-12-29T03:43:24.156Z,19.03
2018-12-29T03:45:49.523Z,19.10
2018-12-29T03:47:55.835Z,16.77
2018-12-29T03:50:01.998Z,17.47
2018-12-29T03:52:07.755Z,17.90
2018-12-29T03:54:13.473Z,20.03
2018-12-29T03:56:19.331Z,19.50
2018-12-29T03:58:24.930Z,17.73
2018-12-29T04:00:49.691Z,17.70
2018-12-29T04:02:55.513Z,17.13
2018-12-29T04:05:01.389Z,17.20
2018-12-29T04:07:07.524Z,17.40
2018-12-29T04:09:49.920Z,17.10
2018-12-29T04:11:55.888Z,17.90
2018-12-29T04:14:02.212Z,18.27
2018-12-29T04:16:08.198Z,17.33
2018-12-29T04:18:13.794Z,18.17
2018-12-29T04:20:19.639Z,17.97
2018-12-29T04:22:25.977Z,17.00
2018-12-29T04:24:32.147Z,18.17
2018-12-29T04:26:37.811Z,18.07
2018-12-29T04:28:47.043Z,16.47
2018-12-29T04:30:52.713Z,17.37
2018-12-29T04:32:58.866Z,17.70
2018-12-29T04:35:04.996Z,16.30
2018-12-29T04:37:11.212Z,17.20
2018-12-29T04:39:17.286Z,18.33
2018-12-29T04:41:23.121Z,17.60
2018-12-29T04:43:29.031Z,16.37
2018-12-29T04:45:34.793Z,17.40
2018-12-29T04:47:40.741Z,17.60
2018-12-29T04:49:46.660Z,17.80
2018-12-29T04:51:52.374Z,17.63
2018-12-29T04:53:58.678Z,17.60
2018-12-29T04:56:23.425Z,17.17
2018-12-29T04:58:41.096Z,17.73
2018-12-29T05:00:47.216Z,15.23
2018-12-29T05:02:52.972Z,17.47
2018-12-29T05:04:58.732Z,16.80
2018-12-29T05:07:04.475Z,17.50
2018-12-29T05:09:10.390Z,18.13
2018-12-29T05:11:16.483Z,18.27
2018-12-29T05:13:22.227Z,16.80
2018-12-29T05:15:47.163Z,17.10
2018-12-29T05:18:04.963Z,16.73
2018-12-29T05:20:29.724Z,17.53
2018-12-29T05:22:35.615Z,16.20
2018-12-29T05:24:41.559Z,18.50
2018-12-29T05:26:47.613Z,17.23
2018-12-29T05:28:53.367Z,16.80
2018-12-29T05:30:58.974Z,17.20
2018-12-29T05:33:04.846Z,18.00
2018-12-29T05:35:10.526Z,16.30
2018-12-29T05:37:16.354Z,16.93
2018-12-29T05:39:22.257Z,16.73
2018-12-29T05:41:28.037Z,18.80
2018-12-29T05:43:33.767Z,17.40
2018-12-29T05:45:58.614Z,18.67
2018-12-29T05:48:04.416Z,17.70
2018-12-29T05:50:10.336Z,18.07
2018-12-29T05:52:16.182Z,17.23
2018-12-29T05:54:21.965Z,17.93
2018-12-29T05:56:27.686Z,18.40
2018-12-29T05:58:33.468Z,17.33
2018-12-29T06:00:39.194Z,18.27
2018-12-29T06:02:45.150Z,18.53
2018-12-29T06:04:51.022Z,17.10
2018-12-29T06:06:56.732Z,19.33
2018-12-29T06:09:04.168Z,17.13
2018-12-29T06:11:10.250Z,18.27
2018-12-29T06:13:15.925Z,18.37
2018-12-29T06:15:21.605Z,18.23
2018-12-29T06:17:46.377Z,18.97
2018-12-29T06:19:52.269Z,18.10
2018-12-29T06:21:57.929Z,19.10
2018-12-29T06:24:03.657Z,18.73
2018-12-29T06:26:09.333Z,17.30
2018-12-29T06:28:15.107Z,16.90
2018-12-29T06:30:20.787Z,17.47
2018-12-29T06:32:26.546Z,17.50
2018-12-29T06:34:32.370Z,19.00
2018-12-29T06:36:38.648Z,17.83
2018-12-29T06:38:44.429Z,18.50
2018-12-29T06:40:50.225Z,18.53
2018-12-29T06:42:55.916Z,17.30
2018-12-29T06:45:01.651Z,19.60
2018-12-29T06:47:07.438Z,17.60
2018-12-29T06:49:13.247Z,16.03
2018-12-29T06:51:18.935Z,17.70
2018-12-29T06:53:24.893Z,17.80
2018-12-29T06:55:31.582Z,17.53
2018-12-29T06:57:37.524Z,17.23
2018-12-29T06:59:43.143Z,18.03
2018-12-29T07:01:48.813Z,18.87
2018-12-29T07:03:55.067Z,19.10
2018-12-29T07:06:21.263Z,18.97
2018-12-29T07:08:26.948Z,18.53
2018-12-29T07:10:32.587Z,18.90
2018-12-29T07:13:14.964Z,19.07
2018-12-29T07:15:21.167Z,17.17
2018-12-29T07:17:28.428Z,19.30
2018-12-29T07:19:34.279Z,16.50
2018-12-29T07:21:41.100Z,19.63
2018-12-29T07:23:47.220Z,18.50
2018-12-29T07:25:53.013Z,19.00
2018-12-29T07:27:58.723Z,19.10
2018-12-29T07:30:04.993Z,19.80
2018-12-29T07:32:10.784Z,20.17
2018-12-29T07:34:16.825Z,18.53
2018-12-29T07:36:24.951Z,17.80
2018-12-29T07:38:30.614Z,19.83
2018-12-29T07:40:36.238Z,18.47
2018-12-29T07:42:42.025Z,19.00
2018-12-29T07:44:47.649Z,17.90
2018-12-29T07:46:53.404Z,19.10
2018-12-29T07:48:59.095Z,21.70
2018-12-29T07:51:04.924Z,18.87
2018-12-29T07:53:10.646Z,18.90
2018-12-29T07:55:16.361Z,17.67
2018-12-29T07:57:22.781Z,18.00
2018-12-29T07:59:28.740Z,17.93
2018-12-29T08:01:34.473Z,18.47
2018-12-29T08:03:40.097Z,19.77
2018-12-29T08:05:46.168Z,18.60
2018-12-29T08:08:10.870Z,21.07
2018-12-29T08:10:16.609Z,18.53
2018-12-29T08:13:00.342Z,19.73
2018-12-29T08:15:06.325Z,17.70
2018-12-29T08:17:12.018Z,19.03
2018-12-29T08:19:17.889Z,19.80
2018-12-29T08:21:23.907Z,18.73
2018-12-29T08:23:30.264Z,18.47
2018-12-29T08:25:36.284Z,19.83
2018-12-29T08:27:42.520Z,17.60
2018-12-29T08:29:48.424Z,20.80
2018-12-29T08:32:13.207Z,20.60
2018-12-29T08:34:19.004Z,18.67
2018-12-29T08:36:24.852Z,20.27
2018-12-29T08:38:30.656Z,19.20
2018-12-29T08:40:55.200Z,20.53
2018-12-29T08:43:00.820Z,18.27
2018-12-29T08:45:06.521Z,18.60
2018-12-29T08:47:12.215Z,19.90
2018-12-29T08:49:18.442Z,18.23
2018-12-29T08:53:58.758Z,17.97
2018-12-29T08:56:04.443Z,20.87
2018-12-29T08:58:10.154Z,20.37
2018-12-29T09:00:15.965Z,19.20
2018-12-29T09:02:22.006Z,20.30
2018-12-29T09:04:27.651Z,21.60
2018-12-29T09:06:33.831Z,20.33
2018-12-29T09:08:39.581Z,19.83
2018-12-29T09:11:04.429Z,19.23
2018-12-29T09:13:10.429Z,19.33
2018-12-29T09:15:16.651Z,21.00
2018-12-29T09:17:23.026Z,20.40
2018-12-29T09:19:28.769Z,19.40
2018-12-29T09:21:34.611Z,20.77
2018-12-29T09:23:59.414Z,20.77
2018-12-29T09:26:05.441Z,20.03
2018-12-29T09:28:11.183Z,20.23
2018-12-29T09:30:17.354Z,18.10
2018-12-29T09:32:23.431Z,17.50
2018-12-29T09:34:29.137Z,19.37
2018-12-29T09:36:54.031Z,21.20
2018-12-29T09:39:00.125Z,21.63
2018-12-29T09:41:05.998Z,20.63
2018-12-29T09:43:11.733Z,19.67
2018-12-29T09:45:17.579Z,18.90
2018-12-29T09:47:24.438Z,18.93
2018-12-29T09:49:30.188Z,20.10
2018-12-29T09:51:36.012Z,19.40
2018-12-29T09:53:41.792Z,19.90
2018-12-29T09:55:47.419Z,17.67
2018-12-29T09:58:12.253Z,18.97
2018-12-29T10:02:52.400Z,18.60
2018-12-29T10:05:17.216Z,17.80
2018-12-29T10:09:53.057Z,17.73
2018-12-29T10:11:58.848Z,16.23
2018-12-29T10:14:26.511Z,19.50
2018-12-29T10:16:32.314Z,18.97
2018-12-29T10:18:38.229Z,18.03
2018-12-29T10:20:43.932Z,17.33
2018-12-29T10:22:50.026Z,18.60
2018-12-29T10:24:57.121Z,17.77
2018-12-29T10:27:03.201Z,19.27
2018-12-29T10:29:08.921Z,19.70
2018-12-29T10:31:33.628Z,18.33
2018-12-29T10:33:39.426Z,18.67
2018-12-29T10:35:45.077Z,19.60
2018-12-29T10:37:50.799Z,18.07
2018-12-29T10:39:56.462Z,19.10
2018-12-29T10:42:02.162Z,18.50
2018-12-29T10:44:08.221Z,19.80
2018-12-29T10:46:14.276Z,19.17
2018-12-29T10:48:19.944Z,19.57
2018-12-29T10:50:28.662Z,17.77
2018-12-29T10:52:34.302Z,19.30
2018-12-29T10:54:39.994Z,19.90
2018-12-29T10:56:45.612Z,17.53
2018-12-29T10:58:51.267Z,19.50
2018-12-29T11:00:57.208Z,20.17
2018-12-29T11:03:02.900Z,19.80
2018-12-29T11:05:09.423Z,19.97
2018-12-29T11:07:15.746Z,18.20
2018-12-29T11:09:21.573Z,18.83
2018-12-29T11:11:27.328Z,19.80
2018-12-29T11:13:33.026Z,22.07
2018-12-29T11:15:38.734Z,20.47
2018-12-29T11:17:46.348Z,19.10
2018-12-29T11:19:52.128Z,20.83
2018-12-29T11:21:58.122Z,19.70
2018-12-29T11:24:03.838Z,17.47
2018-12-29T11:26:09.793Z,17.07
2018-12-29T11:28:34.915Z,20.03
2018-12-29T11:30:41.010Z,18.17
2018-12-29T11:32:46.784Z,18.67
2018-12-29T11:34:52.554Z,18.67
2018-12-29T11:36:59.139Z,17.40
2018-12-29T11:39:06.636Z,18.33
2018-12-29T11:41:12.485Z,14.10
2018-12-29T11:43:18.157Z,17.37
2018-12-29T11:45:23.811Z,17.40
2018-12-29T11:47:50.019Z,16.13
2018-12-29T11:49:56.243Z,16.50
2018-12-29T11:52:03.457Z,17.60
2018-12-29T11:56:25.556Z,16.97
2018-12-29T11:58:33.134Z,16.93
2018-12-29T12:00:39.204Z,18.40
2018-12-29T12:02:44.992Z,17.90
2018-12-29T12:04:50.667Z,16.97
2018-12-29T12:06:56.402Z,19.70
2018-12-29T12:09:02.085Z,16.77
2018-12-29T12:11:10.974Z,14.40
2018-12-29T12:13:18.055Z,14.60
2018-12-29T12:15:23.743Z,15.30
2018-12-29T12:17:48.612Z,17.50
2018-12-29T12:19:54.658Z,15.90
2018-12-29T12:22:03.761Z,17.00
2018-12-29T12:24:09.786Z,16.23
2018-12-29T12:26:16.723Z,15.80
2018-12-29T12:28:22.947Z,16.47
2018-12-29T12:30:29.850Z,15.90
2018-12-29T12:32:56.212Z,15.47
2018-12-29T12:35:02.407Z,15.90
2018-12-29T12:37:08.205Z,15.57
2018-12-29T12:39:14.028Z,16.10
2018-12-29T12:41:19.856Z,15.50
2018-12-29T12:43:25.623Z,14.40
2018-12-29T12:45:31.694Z,15.43
2018-12-29T12:47:39.179Z,13.70
2018-12-29T12:49:45.225Z,13.90
2018-12-29T12:52:09.904Z,15.50
2018-12-29T12:54:15.962Z,14.33
2018-12-29T12:56:35.740Z,14.90
2018-12-29T12:58:48.249Z,15.40
2018-12-29T13:00:54.328Z,15.40
2018-12-29T13:03:02.779Z,14.20
2018-12-29T13:05:08.409Z,14.30
2018-12-29T13:07:14.383Z,14.93
2018-12-29T13:09:20.220Z,14.87
2018-12-29T13:11:25.837Z,14.23
2018-12-29T13:13:52.324Z,14.03
2018-12-29T13:16:01.655Z,15.10
2018-12-29T13:18:19.165Z,15.63
2018-12-29T13:20:24.880Z,15.73
2018-12-29T13:22:30.499Z,14.80
2018-12-29T13:24:36.418Z,14.67
2018-12-29T13:26:42.550Z,14.40
2018-12-29T13:28:48.678Z,12.97
2018-12-29T13:30:55.340Z,14.73
2018-12-29T13:33:01.027Z,12.27
2018-12-29T13:35:06.719Z,15.70
2018-12-29T13:39:42.240Z,14.70
2018-12-29T13:41:48.757Z,11.73
2018-12-29T13:43:54.399Z,16.03
2018-12-29T13:46:00.346Z,15.53
2018-12-29T13:48:06.239Z,14.70
2018-12-29T13:50:12.146Z,15.17
2018-12-29T13:52:17.919Z,13.90
2018-12-29T13:54:42.853Z,15.43
2018-12-29T13:56:48.654Z,15.50
2018-12-29T13:58:56.936Z,13.10
2018-12-29T14:01:03.148Z,13.10
2018-12-29T14:03:08.838Z,13.80
2018-12-29T14:05:14.602Z,15.20
2018-12-29T14:07:20.477Z,15.47
2018-12-29T14:09:26.758Z,12.17
2018-12-29T14:11:32.845Z,14.73
2018-12-29T14:13:38.534Z,14.60
2018-12-29T14:16:03.594Z,14.50
2018-12-29T14:18:09.695Z,13.97
2018-12-29T14:20:15.919Z,13.20
2018-12-29T14:22:21.689Z,12.40
2018-12-29T14:24:29.008Z,11.97
2018-12-29T14:26:55.770Z,12.23
2018-12-29T14:29:02.780Z,12.27
2018-12-29T14:31:08.607Z,11.70
2018-12-29T14:33:20.568Z,12.83
2018-12-29T14:35:26.766Z,11.30
2018-12-29T14:37:32.553Z,12.40
2018-12-29T14:39:58.105Z,10.80
2018-12-29T14:42:15.349Z,11.30
2018-12-29T14:44:23.329Z,11.70
2018-12-29T14:46:29.297Z,11.03
2018-12-29T14:48:36.325Z,10.37
2018-12-29T14:50:42.045Z,9.40
2018-12-29T14:52:47.803Z,9.03
2018-12-29T14:54:55.440Z,9.90
2018-12-29T14:57:01.216Z,10.27
2018-12-29T14:59:07.687Z,11.10
2018-12-29T15:01:14.484Z,9.97
2018-12-29T15:03:21.081Z,10.80
2018-12-29T15:05:26.817Z,10.23
2018-12-29T15:07:32.882Z,10.20
2018-12-29T15:09:38.853Z,10.90
2018-12-29T15:11:45.211Z,11.73
2018-12-29T15:13:51.595Z,10.07
2018-12-29T15:15:57.625Z,10.03
2018-12-29T15:18:03.397Z,8.40
2018-12-29T15:20:09.372Z,8.90
2018-12-29T15:22:15.307Z,7.63
2018-12-29T15:24:21.565Z,7.50
2018-12-29T15:26:27.615Z,8.50
2018-12-29T15:28:52.810Z,7.80
2018-12-29T15:30:58.551Z,8.10
2018-12-29T15:33:04.587Z,9.40
2018-12-29T15:35:10.416Z,8.70
2018-12-29T15:37:16.486Z,9.30
2018-12-29T15:39:22.126Z,8.20
2018-12-29T15:41:28.195Z,5.97
2018-12-29T15:43:34.254Z,7.40
2018-12-29T15:45:39.936Z,6.53
2018-12-29T15:47:45.950Z,7.80
2018-12-29T15:49:51.601Z,7.20
2018-12-29T15:52:16.724Z,9.00
2018-12-29T15:54:22.789Z,7.50
2018-12-29T15:56:28.477Z,8.60
2018-12-29T15:58:34.907Z,9.37
2018-12-29T16:00:41.294Z,9.33
2018-12-29T16:03:06.097Z,7.13
2018-12-29T16:05:14.872Z,9.47
2018-12-29T16:07:20.812Z,9.57
2018-12-29T16:09:28.677Z,8.53
2018-12-29T16:11:34.986Z,10.00
2018-12-29T16:13:59.704Z,7.70
2018-12-29T16:16:05.510Z,9.90
2018-12-29T16:18:12.371Z,9.33
2018-12-29T16:20:18.085Z,8.10
2018-12-29T16:22:43.100Z,9.60
2018-12-29T16:24:48.972Z,9.47
2018-12-29T16:26:55.117Z,11.47
2018-12-29T16:29:01.295Z,9.23
2018-12-29T16:31:26.395Z,9.40
2018-12-29T16:33:32.912Z,10.87
2018-12-29T16:35:42.843Z,8.57
2018-12-29T16:37:48.689Z,8.13
2018-12-29T16:40:13.350Z,6.30
2018-12-29T16:42:19.265Z,9.77
2018-12-29T16:44:25.164Z,8.77
2018-12-29T16:46:50.269Z,8.87
2018-12-29T16:48:56.429Z,9.03
2018-12-29T16:51:02.221Z,8.37
2018-12-29T16:53:08.120Z,7.67
2018-12-29T16:55:35.282Z,7.00
2018-12-29T16:57:42.249Z,7.00
2018-12-29T16:59:48.255Z,9.80
2018-12-29T17:01:54.319Z,7.40
2018-12-29T17:04:00.310Z,7.00
2018-12-29T17:06:27.022Z,8.03
2018-12-29T17:08:34.831Z,8.80
2018-12-29T17:10:42.592Z,7.90
2018-12-29T17:12:48.365Z,7.43
2018-12-29T17:14:54.200Z,10.47
2018-12-29T17:17:00.002Z,9.50
2018-12-29T17:19:05.907Z,9.80
2018-12-29T17:21:11.742Z,7.90
2018-12-29T17:23:17.455Z,8.30
2018-12-29T17:25:23.442Z,9.47
2018-12-29T17:27:29.244Z,8.30
2018-12-29T17:29:36.324Z,9.90
2018-12-29T17:31:44.076Z,7.77
2018-12-29T17:33:49.854Z,9.67
2018-12-29T17:35:56.035Z,7.70
2018-12-29T17:38:05.395Z,10.93
2018-12-29T17:40:13.008Z,9.70
2018-12-29T17:42:40.314Z,8.60
2018-12-29T17:44:46.934Z,10.33
2018-12-29T17:46:53.685Z,7.60
2018-12-29T17:49:00.101Z,9.50
2018-12-29T17:51:05.818Z,10.63
2018-12-29T17:53:12.078Z,11.03
2018-12-29T17:55:17.710Z,9.97
2018-12-29T17:57:43.392Z,7.93
2018-12-29T17:59:49.462Z,7.37
2018-12-29T18:01:55.407Z,8.07
2018-12-29T18:04:04.661Z,8.40
2018-12-29T18:06:11.468Z,13.60
2018-12-29T18:08:17.445Z,11.80
2018-12-29T18:10:23.320Z,11.80
2018-12-29T18:12:29.372Z,12.23
2018-12-29T18:14:35.269Z,11.63
2018-12-29T18:17:00.176Z,10.70
2018-12-29T18:19:06.453Z,11.30
2018-12-29T18:21:12.306Z,11.43
2018-12-29T18:23:18.257Z,11.17
2018-12-29T18:25:24.592Z,11.07
2018-12-29T18:27:50.051Z,12.30
2018-12-29T18:29:58.166Z,11.40
2018-12-29T18:32:16.311Z,10.73
2018-12-29T18:34:22.224Z,12.10
2018-12-29T18:36:28.314Z,14.30
2018-12-29T18:38:41.951Z,11.97
2018-12-29T18:40:49.524Z,12.97
2018-12-29T18:42:55.880Z,13.23
2018-12-29T18:45:03.433Z,13.57
2018-12-29T18:47:13.041Z,15.30
2018-12-29T18:49:38.905Z,12.30
2018-12-29T18:51:44.942Z,10.47
2018-12-29T18:54:11.507Z,14.13
2018-12-29T18:56:18.901Z,16.33
2018-12-29T18:58:25.914Z,16.47
2018-12-29T19:00:51.486Z,17.00
2018-12-29T19:03:19.685Z,12.47
2018-12-29T19:05:27.640Z,13.83
2018-12-29T19:07:33.364Z,16.17
2018-12-29T19:09:39.363Z,16.63
2018-12-29T19:11:46.554Z,17.20
2018-12-29T19:13:53.886Z,17.30
2018-12-29T19:16:00.142Z,14.40
2018-12-29T19:18:06.432Z,13.50
2018-12-29T19:20:12.558Z,12.50
2018-12-29T19:22:18.257Z,14.80
2018-12-29T19:24:23.905Z,16.80
2018-12-29T19:26:48.618Z,18.60
2018-12-29T19:29:08.042Z,17.80
2018-12-29T19:31:14.348Z,15.90
2018-12-29T19:33:20.790Z,16.70
2018-12-29T19:35:27.046Z,18.70
2018-12-29T19:37:51.958Z,18.63
2018-12-29T19:40:09.088Z,18.63
2018-12-29T19:42:15.164Z,16.60
2018-12-29T19:44:22.739Z,12.70
2018-12-29T19:46:28.766Z,21.40
2018-12-29T19:48:53.519Z,18.43
2018-12-29T19:51:00.504Z,21.03
2018-12-29T19:53:26.003Z,17.50
2018-12-29T19:55:32.132Z,16.00
2018-12-29T19:57:38.697Z,19.00
2018-12-29T19:59:44.805Z,18.27
2018-12-29T20:01:50.980Z,21.87
2018-12-29T20:03:57.825Z,22.57
2018-12-29T20:06:10.997Z,21.67
2018-12-29T20:10:49.477Z,22.50
2018-12-29T20:12:55.225Z,17.97
2018-12-29T20:15:01.050Z,15.90
2018-12-29T20:17:08.730Z,15.97
2018-12-29T20:19:17.693Z,22.87
2018-12-29T20:21:43.208Z,16.40
2018-12-29T20:23:50.123Z,18.13
2018-12-29T20:25:56.432Z,18.40
2018-12-29T20:28:21.378Z,20.20
2018-12-29T20:30:27.911Z,18.43
2018-12-29T20:32:35.780Z,17.00
2018-12-29T20:34:47.342Z,13.97
2018-12-29T20:36:57.878Z,20.70
2018-12-29T20:39:25.173Z,19.07
2018-12-29T20:41:33.321Z,17.60
2018-12-29T20:43:41.044Z,21.37
2018-12-29T20:46:06.282Z,12.57
2018-12-29T20:48:24.846Z,16.40
2018-12-29T20:50:31.276Z,20.20
2018-12-29T20:52:37.681Z,20.27
2018-12-29T20:55:07.804Z,13.47
2018-12-29T21:04:40.529Z,9.87
2018-12-29T21:06:47.921Z,12.80
2018-12-29T21:11:52.614Z,11.53
2018-12-29T21:14:03.671Z,9.30
2018-12-29T21:16:30.398Z,13.50
2018-12-29T21:18:37.730Z,9.97
2018-12-29T21:21:03.219Z,8.43
2018-12-29T21:23:10.739Z,11.23
2018-12-29T21:25:18.163Z,7.73
2018-12-29T21:27:30.967Z,12.30
2018-12-29T21:29:56.525Z,6.17
2018-12-29T21:32:26.349Z,12.07
2018-12-29T21:34:20.036Z,7.90
2018-12-29T21:36:26.360Z,7.73
2018-12-29T21:38:34.684Z,6.67
2018-12-29T21:40:41.623Z,5.17
2018-12-29T21:42:49.629Z,6.77
2018-12-29T21:45:16.602Z,5.57
2018-12-29T21:47:24.745Z,4.70
2018-12-29T21:50:08.965Z,4.43
2018-12-29T21:52:16.466Z,5.23
2018-12-29T21:54:23.454Z,5.13
2018-12-29T21:57:10.227Z,1.77
2018-12-29T21:59:16.694Z,2.37
2018-12-29T22:01:23.463Z,3.60
2018-12-29T22:03:30.173Z,2.97
2018-12-29T22:05:36.225Z,2.80
2018-12-29T22:07:42.000Z,2.50
2018-12-29T22:09:47.728Z,2.03
2018-12-29T22:11:53.971Z,2.30
2018-12-29T22:14:06.679Z,2.70
2018-12-29T22:16:13.855Z,2.40
2018-12-29T22:18:20.681Z,2.20
2018-12-29T22:20:33.246Z,1.80
2018-12-29T22:22:53.239Z,2.40
2018-12-29T22:25:06.483Z,2.10
2018-12-29T22:27:13.310Z,2.27
2018-12-29T22:29:20.989Z,2.57
2018-12-29T22:31:28.095Z,2.33
2018-12-29T22:33:33.937Z,2.03
2018-12-29T22:35:59.177Z,1.30
2018-12-29T22:38:24.444Z,2.03
2018-12-29T22:40:31.895Z,2.80
2018-12-29T22:42:37.906Z,1.90
2018-12-29T22:47:24.683Z,1.97
2018-12-29T22:49:32.567Z,4.27
2018-12-29T22:51:39.374Z,2.10
2018-12-29T22:53:45.051Z,3.00
2018-12-29T22:55:56.349Z,1.90
2018-12-29T22:58:08.586Z,2.20
2018-12-29T23:00:21.665Z,2.87
2018-12-29T23:02:27.976Z,2.77
2018-12-29T23:04:52.192Z,2.00
2018-12-29T23:06:58.476Z,1.80
2018-12-29T23:09:09.574Z,2.77
2018-12-29T23:11:15.474Z,2.57
2018-12-29T23:13:21.193Z,2.13
2018-12-29T23:15:27.371Z,1.77
2018-12-29T23:17:33.935Z,2.97
2018-12-29T23:19:39.555Z,2.10
2018-12-29T23:21:45.640Z,2.07
2018-12-29T23:23:53.348Z,1.73
2018-12-29T23:25:59.686Z,1.47
2018-12-29T23:28:06.541Z,1.53
2018-12-29T23:30:12.306Z,1.90
2018-12-29T23:32:20.990Z,2.40
2018-12-29T23:34:26.614Z,1.50
2018-12-29T23:36:32.571Z,2.70
2018-12-29T23:38:38.387Z,2.17
2018-12-29T23:41:03.101Z,1.40
2018-12-29T23:43:08.700Z,1.53
2018-12-29T23:47:49.231Z,1.93
2018-12-29T23:49:55.374Z,2.20
2018-12-29T23:52:21.945Z,2.30
2018-12-29T23:54:31.212Z,2.10
2018-12-29T23:56:37.095Z,2.30
